Time;durP1;ratioP1;P1;durP2;ratioP2;P2;SDS_P1;SDS_P2;PMS_P1;PMS_P2;Temp;Humidity;BMP_temperature;BMP_pressure;BME280_temperature;BME280_humidity;BME280_pressure;Samples;Min_cycle;Max_cycle;Signal;HPM_P1;HPM_P2
2023/03/24 02:02:37;;;;;;;8.80;7.93;;;12.20;99.90;;;;;;6193188;22;20389;-77
2023/03/24 02:05:09;;;;;;;9.68;8.68;;;12.20;99.90;;;;;;6241370;22;20388;-77
2023/03/24 02:08:01;;;;;;;9.43;8.48;;;12.20;99.90;;;;;;6240430;22;20369;-77
2023/03/24 02:10:31;;;;;;;9.00;8.10;;;12.20;99.90;;;;;;6241496;23;20395;-77
2023/03/24 02:12:59;;;;;;;9.18;8.27;;;12.20;99.90;;;;;;6241097;22;20838;-77
2023/03/24 02:15:29;;;;;;;11.43;8.70;;;12.20;99.90;;;;;;6241721;23;20400;-78
2023/03/24 02:18:34;;;;;;;10.77;9.60;;;12.20;99.90;;;;;;6240873;22;20444;-77
2023/03/24 02:21:26;;;;;;;9.93;8.82;;;12.20;99.90;;;;;;6241013;23;20697;-77
2023/03/24 02:24:15;;;;;;;9.63;8.30;;;12.20;99.90;;;;;;6240512;22;20400;-76
2023/03/24 02:26:54;;;;;;;11.03;8.63;;;12.20;99.90;;;;;;6240911;22;20369;-77
2023/03/24 02:29:38;;;;;;;11.77;9.23;;;12.20;99.90;;;;;;6242073;23;20749;-76
2023/03/24 02:32:29;;;;;;;9.85;8.85;;;12.20;99.90;;;;;;6241348;22;20384;-77
2023/03/24 02:35:15;;;;;;;8.88;7.97;;;12.20;99.90;;;;;;6240949;22;20373;-78
2023/03/24 02:38:08;;;;;;;9.75;8.75;;;12.20;99.90;;;;;;6239075;22;20400;-77
2023/03/24 02:41:00;;;;;;;9.63;8.65;;;12.30;99.90;;;;;;6240290;23;20738;-77
2023/03/24 02:44:00;;;;;;;11.13;9.35;;;12.20;99.90;;;;;;6240782;22;20380;-77
2023/03/24 02:46:52;;;;;;;9.82;8.93;;;12.30;99.90;;;;;;6240096;22;20880;-77
2023/03/24 02:49:43;;;;;;;9.18;8.20;;;12.20;99.90;;;;;;6240380;22;20365;-75
2023/03/24 02:52:20;;;;;;;8.82;7.97;;;12.20;99.90;;;;;;6241697;22;20369;-76
2023/03/24 02:55:11;;;;;;;7.60;6.90;;;12.20;99.90;;;;;;6240944;22;20893;-76
2023/03/24 02:57:49;;;;;;;8.88;8.00;;;12.20;99.90;;;;;;6194590;23;20849;-76
2023/03/24 03:00:29;;;;;;;8.13;7.32;;;12.20;99.90;;;;;;6238947;22;20452;-76
2023/03/24 03:03:06;;;;;;;8.15;7.45;;;12.20;99.90;;;;;;6240641;23;20369;-76
2023/03/24 03:05:40;;;;;;;11.57;10.20;;;12.20;99.90;;;;;;6239902;22;20356;-76
2023/03/24 03:08:11;;;;;;;10.70;9.60;;;12.20;99.90;;;;;;6240911;23;20411;-76
2023/03/24 03:10:42;;;;;;;9.40;8.43;;;12.20;99.90;;;;;;6240227;22;20376;-76
2023/03/24 03:13:22;;;;;;;10.50;9.45;;;12.20;99.90;;;;;;6240539;23;20399;-77
2023/03/24 03:15:55;;;;;;;10.13;9.13;;;12.20;99.90;;;;;;6240169;23;21548;-76
2023/03/24 03:18:30;;;;;;;10.27;9.25;;;12.20;99.90;;;;;;6240716;23;20373;-76
2023/03/24 03:21:06;;;;;;;10.18;9.18;;;12.20;99.90;;;;;;6240222;23;20361;-76
2023/03/24 03:23:40;;;;;;;10.93;9.40;;;12.20;99.90;;;;;;6240106;22;20369;-77
2023/03/24 03:26:15;;;;;;;10.13;8.73;;;12.20;99.90;;;;;;6240996;23;20393;-76
2023/03/24 03:28:48;;;;;;;9.70;8.23;;;12.20;99.90;;;;;;6239993;22;20369;-76
2023/03/24 03:31:22;;;;;;;9.73;8.73;;;12.20;99.90;;;;;;6240677;23;20388;-76
2023/03/24 03:34:28;;;;;;;8.25;7.45;;;12.20;99.90;;;;;;6241386;22;20376;-76
2023/03/24 03:37:11;;;;;;;8.70;7.80;;;12.20;99.90;;;;;;6197187;22;20679;-76
2023/03/24 03:39:54;;;;;;;8.85;7.88;;;12.20;99.90;;;;;;6239425;22;20385;-76
2023/03/24 03:42:22;;;;;;;9.93;8.93;;;12.30;99.90;;;;;;6241704;22;20389;-75
2023/03/24 03:44:49;;;;;;;9.68;8.25;;;12.30;99.90;;;;;;6239749;22;20746;-76
2023/03/24 03:47:17;;;;;;;10.48;9.30;;;12.30;99.90;;;;;;6240378;23;20695;-75
2023/03/24 03:49:45;;;;;;;9.73;8.70;;;12.20;99.90;;;;;;6241395;22;20862;-75
2023/03/24 03:52:12;;;;;;;10.27;9.27;;;12.10;99.90;;;;;;6240387;23;20369;-75
2023/03/24 03:54:41;;;;;;;9.02;8.15;;;12.10;99.90;;;;;;6239373;22;20373;-75
2023/03/24 03:57:11;;;;;;;10.57;9.48;;;12.10;99.90;;;;;;6240102;23;20377;-75
2023/03/24 03:59:39;;;;;;;10.98;9.88;;;12.10;99.90;;;;;;6239783;22;20408;-77
2023/03/24 04:02:25;;;;;;;10.32;9.25;;;12.10;99.90;;;;;;6240358;23;20365;-75
2023/03/24 04:05:13;;;;;;;9.77;8.77;;;12.10;99.90;;;;;;6239562;22;20373;-76
2023/03/24 04:08:06;;;;;;;9.07;8.18;;;12.10;99.90;;;;;;6239437;22;20369;-75
2023/03/24 04:11:20;;;;;;;10.52;9.52;;;12.10;99.90;;;;;;6242176;22;20405;-75
2023/03/24 04:14:10;;;;;;;9.35;8.43;;;12.10;99.90;;;;;;6225150;23;20397;-75
2023/03/24 04:16:52;;;;;;;9.07;8.20;;;12.20;99.90;;;;;;6239089;22;20373;-75
2023/03/24 04:20:10;;;;;;;8.50;7.70;;;12.20;99.90;;;;;;6239775;23;20365;-76
2023/03/24 04:22:59;;;;;;;9.68;8.40;;;12.20;99.90;;;;;;6153576;23;20933;-75
2023/03/24 04:25:57;;;;;;;8.23;7.43;;;12.20;99.90;;;;;;6239322;22;20687;-75
2023/03/24 04:28:43;;;;;;;8.18;7.38;;;12.30;99.90;;;;;;6220584;22;20377;-76
2023/03/24 04:31:28;;;;;;;8.38;7.57;;;12.20;99.90;;;;;;6240072;23;20372;-76
2023/03/24 04:34:02;;;;;;;8.77;7.88;;;12.30;99.90;;;;;;6239105;23;20365;-76
2023/03/24 04:36:49;;;;;;;9.30;8.10;;;12.30;99.90;;;;;;6241677;22;20423;-76
2023/03/24 04:39:24;;;;;;;9.23;8.32;;;12.30;99.90;;;;;;6239708;22;20428;-76
2023/03/24 04:41:53;;;;;;;8.95;8.05;;;12.30;99.90;;;;;;6239621;23;20366;-76
2023/03/24 04:44:21;;;;;;;8.48;7.70;;;12.30;99.90;;;;;;6239327;23;20700;-76
2023/03/24 04:46:50;;;;;;;9.05;8.15;;;12.30;99.90;;;;;;6239251;23;20373;-76
2023/03/24 04:49:23;;;;;;;9.53;8.63;;;12.30;99.90;;;;;;6239194;22;20375;-76
2023/03/24 04:51:51;;;;;;;9.93;9.02;;;12.30;99.90;;;;;;6239796;23;20369;-75
2023/03/24 04:54:19;;;;;;;10.10;9.10;;;12.30;99.90;;;;;;6240842;22;20428;-75
2023/03/24 04:56:49;;;;;;;10.50;9.45;;;12.30;99.90;;;;;;6239505;23;20373;-75
2023/03/24 04:59:17;;;;;;;9.98;8.98;;;12.30;99.90;;;;;;6239112;22;20372;-76
2023/03/24 05:01:50;;;;;;;9.95;8.95;;;12.20;99.90;;;;;;6239315;23;20423;-76
2023/03/24 05:04:20;;;;;;;10.63;9.40;;;12.20;99.90;;;;;;6238868;22;20373;-75
2023/03/24 05:06:50;;;;;;;8.97;8.10;;;12.20;99.90;;;;;;6239878;23;20380;-75
2023/03/24 05:09:22;;;;;;;8.80;7.93;;;12.20;99.90;;;;;;6239123;22;20392;-76
2023/03/24 05:11:50;;;;;;;9.07;8.18;;;12.20;99.90;;;;;;6242318;23;20419;-76
2023/03/24 05:14:17;;;;;;;9.30;8.50;;;12.20;99.90;;;;;;6240750;22;20730;-76
2023/03/24 05:16:44;;;;;;;8.63;7.72;;;12.20;99.90;;;;;;6242029;23;20452;-76
2023/03/24 05:19:11;;;;;;;8.65;7.82;;;12.20;99.90;;;;;;6240962;22;20376;-76
2023/03/24 05:21:39;;;;;;;8.95;8.05;;;12.20;99.90;;;;;;6242079;23;20392;-76
2023/03/24 05:24:07;;;;;;;9.55;8.63;;;12.20;99.90;;;;;;6240764;22;20384;-76
2023/03/24 05:26:34;;;;;;;8.90;8.00;;;12.20;99.90;;;;;;6241705;23;20392;-76
2023/03/24 05:29:01;;;;;;;9.00;8.18;;;12.20;99.90;;;;;;6242744;22;20369;-76
2023/03/24 05:31:28;;;;;;;9.52;8.52;;;12.30;99.90;;;;;;6241645;23;20440;-76
2023/03/24 05:33:55;;;;;;;10.60;9.50;;;12.30;99.90;;;;;;6241841;23;20380;-76
2023/03/24 05:36:22;;;;;;;10.77;9.70;;;12.30;99.90;;;;;;6240293;22;20724;-76
2023/03/24 05:38:49;;;;;;;10.15;9.20;;;12.30;99.90;;;;;;6241578;23;20369;-76
2023/03/24 05:41:16;;;;;;;11.82;10.15;;;12.30;99.90;;;;;;6240434;22;20393;-76
2023/03/24 05:43:42;;;;;;;17.42;15.40;;;12.30;99.90;;;;;;6243335;22;20369;-76
2023/03/24 05:46:09;;;;;;;15.48;13.80;;;12.30;99.90;;;;;;6240766;22;20396;-76
2023/03/24 05:48:36;;;;;;;12.47;11.17;;;12.30;99.90;;;;;;6241793;23;20892;-76
2023/03/24 05:51:03;;;;;;;12.67;11.03;;;12.30;99.90;;;;;;6241183;22;20369;-76
2023/03/24 05:53:30;;;;;;;11.20;10.05;;;12.30;99.90;;;;;;6241706;23;20426;-75
2023/03/24 05:55:57;;;;;;;10.77;9.77;;;12.30;99.90;;;;;;6241979;23;20404;-76
2023/03/24 05:58:24;;;;;;;10.60;9.60;;;12.30;99.90;;;;;;6240371;22;20418;-76
2023/03/24 06:00:53;;;;;;;9.45;8.45;;;12.30;99.90;;;;;;6241776;23;20753;-76
2023/03/24 06:03:20;;;;;;;9.80;8.82;;;12.30;99.90;;;;;;6240463;22;20373;-76
2023/03/24 06:05:48;;;;;;;10.40;9.30;;;12.30;99.90;;;;;;6242031;23;20381;-76
2023/03/24 06:08:15;;;;;;;10.23;9.18;;;12.30;99.90;;;;;;6240293;22;20373;-76
2023/03/24 06:10:43;;;;;;;13.13;10.25;;;12.20;99.90;;;;;;6241639;23;20468;-76
2023/03/24 06:13:10;;;;;;;10.57;9.57;;;12.20;99.90;;;;;;6240417;22;20380;-76
2023/03/24 06:15:38;;;;;;;11.77;9.60;;;12.10;99.90;;;;;;6241702;23;20746;-76
2023/03/24 06:18:06;;;;;;;9.65;8.73;;;12.10;99.90;;;;;;6240646;22;20456;-76
2023/03/24 06:20:34;;;;;;;9.70;8.70;;;12.10;99.90;;;;;;6241087;23;20396;-76
2023/03/24 06:23:02;;;;;;;9.80;8.80;;;12.10;99.90;;;;;;6241125;23;20756;-76
2023/03/24 06:25:29;;;;;;;10.07;8.95;;;12.10;99.90;;;;;;6240199;23;20436;-76
2023/03/24 06:28:04;;;;;;;11.20;8.93;;;12.20;99.90;;;;;;6241294;23;20376;-76
2023/03/24 06:30:31;;;;;;;11.15;9.15;;;12.20;99.90;;;;;;6240451;22;20431;-75
2023/03/24 06:32:58;;;;;;;11.15;10.00;;;12.20;99.90;;;;;;6241510;23;20365;-75
2023/03/24 06:35:25;;;;;;;10.93;9.82;;;12.20;99.90;;;;;;6241697;22;20369;-76
2023/03/24 06:37:52;;;;;;;10.02;8.95;;;12.30;99.90;;;;;;6241410;23;20377;-76
2023/03/24 06:40:19;;;;;;;13.85;9.80;;;12.30;99.90;;;;;;6240164;22;20385;-76
2023/03/24 06:42:48;;;;;;;11.00;9.85;;;12.30;99.90;;;;;;6241612;23;20369;-76
2023/03/24 06:45:15;;;;;;;10.68;9.38;;;12.30;99.90;;;;;;6241722;22;20371;-76
2023/03/24 06:47:42;;;;;;;9.43;8.43;;;12.40;99.90;;;;;;6241311;23;20365;-76
2023/03/24 06:50:09;;;;;;;10.00;9.00;;;12.40;99.90;;;;;;6240168;22;20443;-76
2023/03/24 06:52:36;;;;;;;11.43;9.32;;;12.40;99.90;;;;;;6241317;23;20368;-76
2023/03/24 06:55:04;;;;;;;10.48;9.38;;;12.50;99.90;;;;;;6239848;23;20416;-76
2023/03/24 06:57:30;;;;;;;9.77;8.77;;;12.50;99.90;;;;;;6239923;22;20401;-75
2023/03/24 06:59:57;;;;;;;10.75;9.07;;;12.50;99.90;;;;;;6240498;23;20821;-76
2023/03/24 07:02:24;;;;;;;10.18;9.10;;;12.60;99.90;;;;;;6239690;22;20373;-76
2023/03/24 07:04:52;;;;;;;10.57;9.48;;;12.60;99.90;;;;;;6240824;23;20365;-76
2023/03/24 07:07:21;;;;;;;10.75;9.65;;;12.60;99.90;;;;;;6240028;22;20393;-76
2023/03/24 07:10:08;;;;;;;10.57;9.55;;;12.60;99.90;;;;;;6240684;23;20369;-76
2023/03/24 07:12:35;;;;;;;10.80;9.60;;;12.60;99.90;;;;;;6239970;22;20396;-77
2023/03/24 07:15:03;;;;;;;11.23;10.07;;;12.60;99.90;;;;;;6240835;23;20710;-76
2023/03/24 07:17:30;;;;;;;13.30;11.57;;;12.70;99.90;;;;;;6239439;22;20373;-77
2023/03/24 07:19:57;;;;;;;22.88;19.05;;;12.70;99.90;;;;;;6241964;22;20369;-76
2023/03/24 07:22:24;;;;;;;27.80;21.10;;;12.70;99.90;;;;;;6240931;22;20373;-76
2023/03/24 07:24:51;;;;;;;32.95;27.02;;;12.60;99.90;;;;;;6240802;23;20426;-76
2023/03/24 07:27:20;;;;;;;22.17;19.55;;;12.60;99.90;;;;;;6239804;22;20376;-76
2023/03/24 07:29:47;;;;;;;18.52;16.13;;;12.60;99.90;;;;;;6241193;23;20755;-76
2023/03/24 07:32:13;;;;;;;18.15;16.35;;;12.70;99.90;;;;;;6239781;22;20369;-76
2023/03/24 07:34:42;;;;;;;14.70;13.40;;;12.70;99.90;;;;;;6242744;22;20361;-76
2023/03/24 07:37:09;;;;;;;12.52;11.25;;;12.80;99.90;;;;;;6241013;23;20361;-76
2023/03/24 07:39:37;;;;;;;12.98;11.68;;;12.80;99.90;;;;;;6240404;22;20357;-76
2023/03/24 07:42:04;;;;;;;12.00;10.75;;;12.90;99.90;;;;;;6242066;22;20380;-76
2023/03/24 07:44:31;;;;;;;13.82;12.40;;;13.00;99.90;;;;;;6239715;22;20385;-76
2023/03/24 07:46:58;;;;;;;14.18;12.48;;;13.00;99.90;;;;;;6240759;23;20431;-77
2023/03/24 07:49:26;;;;;;;12.23;10.90;;;13.10;99.90;;;;;;6239767;22;20380;-75
2023/03/24 07:51:53;;;;;;;13.67;11.37;;;13.20;99.90;;;;;;6240687;23;20403;-76
2023/03/24 07:54:20;;;;;;;11.20;10.10;;;13.30;99.90;;;;;;6239737;22;20719;-76
2023/03/24 07:56:47;;;;;;;10.27;9.18;;;13.30;99.90;;;;;;6242654;22;20672;-76
2023/03/24 07:59:16;;;;;;;11.15;10.05;;;13.40;99.90;;;;;;6240015;23;20373;-78
2023/03/24 08:01:42;;;;;;;10.32;9.32;;;13.40;99.90;;;;;;6240488;23;20449;-77
2023/03/24 08:04:13;;;;;;;11.13;9.80;;;13.40;99.90;;;;;;6240678;23;20373;-76
2023/03/24 08:06:42;;;;;;;10.30;9.23;;;13.40;99.90;;;;;;6240164;22;20846;-77
2023/03/24 08:09:10;;;;;;;10.57;9.57;;;13.50;99.90;;;;;;6240561;23;20373;-76
2023/03/24 08:11:38;;;;;;;9.05;8.15;;;13.60;99.90;;;;;;6239842;22;20417;-76
2023/03/24 08:14:05;;;;;;;10.13;9.18;;;13.60;99.90;;;;;;6240578;23;20377;-76
2023/03/24 08:16:32;;;;;;;10.82;9.73;;;13.70;99.90;;;;;;6240996;22;20718;-76
2023/03/24 08:18:59;;;;;;;10.20;9.20;;;13.70;99.90;;;;;;6242144;22;20376;-76
2023/03/24 08:21:26;;;;;;;10.43;9.33;;;13.80;99.90;;;;;;6239673;22;20375;-76
2023/03/24 08:23:53;;;;;;;8.57;7.68;;;13.80;99.90;;;;;;6240644;23;20431;-76
2023/03/24 08:26:21;;;;;;;8.82;7.60;;;13.90;99.90;;;;;;6239405;22;20407;-76
2023/03/24 08:28:48;;;;;;;10.80;8.93;;;13.90;99.90;;;;;;6240225;23;20400;-76
2023/03/24 08:31:15;;;;;;;10.25;9.10;;;14.10;99.90;;;;;;6240713;23;20730;-76
2023/03/24 08:33:42;;;;;;;11.32;9.85;;;14.20;99.90;;;;;;6241059;22;20361;-76
2023/03/24 08:36:09;;;;;;;9.65;8.70;;;14.30;99.90;;;;;;6240730;23;20376;-76
2023/03/24 08:38:37;;;;;;;9.57;8.23;;;14.50;99.90;;;;;;6239282;22;20373;-76
2023/03/24 08:41:05;;;;;;;10.20;9.20;;;14.70;99.90;;;;;;6241548;22;20460;-76
2023/03/24 08:43:34;;;;;;;10.32;9.18;;;14.90;99.80;;;;;;6239026;22;20372;-77
2023/03/24 08:46:02;;;;;;;9.60;8.60;;;15.10;98.40;;;;;;6239508;23;20381;-76
2023/03/24 08:48:29;;;;;;;9.20;8.23;;;15.30;98.20;;;;;;6214279;22;20437;-76
2023/03/24 08:50:56;;;;;;;8.75;7.88;;;15.30;97.00;;;;;;6240336;23;20703;-76
2023/03/24 08:53:23;;;;;;;11.55;9.98;;;15.50;96.20;;;;;;6239172;22;20435;-76
2023/03/24 08:55:50;;;;;;;11.38;9.30;;;15.50;93.80;;;;;;6240283;23;20689;-76
2023/03/24 08:58:19;;;;;;;10.60;9.50;;;15.60;92.90;;;;;;6240058;23;20423;-76
2023/03/24 09:00:47;;;;;;;12.90;10.73;;;15.50;93.30;;;;;;6239453;23;20404;-76
2023/03/24 09:03:21;;;;;;;11.85;10.65;;;15.60;94.60;;;;;;6239368;23;20381;-75
2023/03/24 09:05:49;;;;;;;12.05;10.75;;;15.60;93.30;;;;;;6241107;22;20377;-76
2023/03/24 09:08:17;;;;;;;12.45;11.18;;;15.60;93.30;;;;;;6239780;23;20401;-76
2023/03/24 09:10:47;;;;;;;11.07;9.73;;;15.70;94.10;;;;;;6239240;22;20396;-77
2023/03/24 09:13:16;;;;;;;10.00;9.00;;;15.90;93.60;;;;;;6239617;23;20473;-77
2023/03/24 09:15:51;;;;;;;12.60;11.35;;;16.10;93.00;;;;;;6239654;22;20373;-76
2023/03/24 09:18:19;;;;;;;11.50;10.32;;;16.30;91.30;;;;;;6240424;23;20379;-76
2023/03/24 09:20:47;;;;;;;14.07;12.60;;;16.30;89.80;;;;;;6239137;22;20423;-76
2023/03/24 09:23:15;;;;;;;11.95;10.65;;;16.40;90.40;;;;;;6240189;23;20448;-76
2023/03/24 09:25:42;;;;;;;13.88;12.10;;;16.50;89.00;;;;;;6239223;22;20381;-76
2023/03/24 09:28:09;;;;;;;12.65;10.80;;;16.60;88.70;;;;;;6240265;23;20854;-76
2023/03/24 09:30:36;;;;;;;11.00;9.38;;;16.70;86.40;;;;;;6239017;22;20369;-76
2023/03/24 09:33:03;;;;;;;10.15;9.15;;;16.80;85.90;;;;;;6240172;23;20415;-77
2023/03/24 09:35:30;;;;;;;10.52;8.88;;;16.80;82.30;;;;;;6238564;22;20365;-76
2023/03/24 09:37:57;;;;;;;9.87;8.97;;;16.90;84.40;;;;;;6239991;23;20427;-76
2023/03/24 09:40:26;;;;;;;8.67;7.80;;;16.90;82.70;;;;;;6240124;23;20381;-76
2023/03/24 09:42:59;;;;;;;8.57;7.72;;;16.90;82.30;;;;;;6239316;22;20415;-76
2023/03/24 09:45:28;;;;;;;10.60;8.18;;;16.90;82.90;;;;;;6239732;23;20394;-76
2023/03/24 09:48:01;;;;;;;10.02;9.02;;;16.90;83.60;;;;;;6239552;22;20388;-75
2023/03/24 09:50:34;;;;;;;9.50;8.05;;;16.80;80.50;;;;;;6239707;23;20880;-76
2023/03/24 09:53:33;;;;;;;9.80;8.80;;;16.60;84.60;;;;;;6238844;22;20396;-76
2023/03/24 09:56:10;;;;;;;9.25;8.38;;;16.50;87.90;;;;;;6239330;22;20365;-76
2023/03/24 09:58:40;;;;;;;11.02;8.63;;;16.40;87.30;;;;;;6240694;22;20391;-77
2023/03/24 10:01:15;;;;;;;10.65;9.57;;;16.30;90.10;;;;;;6240861;23;20377;-76
2023/03/24 10:03:44;;;;;;;11.93;9.63;;;16.20;90.20;;;;;;6239111;22;20422;-77
2023/03/24 10:06:25;;;;;;;11.20;8.65;;;16.10;91.70;;;;;;6241623;23;20399;-76
2023/03/24 10:09:04;;;;;;;8.55;7.70;;;16.20;92.50;;;;;;6239979;22;20369;-75
2023/03/24 10:11:51;;;;;;;11.43;9.00;;;16.30;91.70;;;;;;6238208;23;20407;-76
2023/03/24 10:14:30;;;;;;;8.63;7.53;;;16.40;90.90;;;;;;6215955;22;20383;-76
2023/03/24 10:17:10;;;;;;;10.60;9.45;;;16.30;90.50;;;;;;6240813;22;20751;-75
2023/03/24 10:19:43;;;;;;;9.90;8.55;;;16.30;91.10;;;;;;6242924;22;20431;-75
2023/03/24 10:22:24;;;;;;;14.60;11.02;;;16.30;91.30;;;;;;6240295;22;20419;-75
2023/03/24 10:25:18;;;;;;;11.30;9.27;;;16.20;91.60;;;;;;6241303;23;20393;-74
2023/03/24 10:27:57;;;;;;;13.35;11.48;;;16.20;92.20;;;;;;6239919;23;20381;-75
2023/03/24 10:30:38;;;;;;;13.48;11.13;;;16.20;91.90;;;;;;6240133;22;20432;-74
2023/03/24 10:33:05;;;;;;;10.07;8.75;;;16.20;92.20;;;;;;6240980;23;20431;-75
2023/03/24 10:35:42;;;;;;;12.07;9.52;;;16.20;91.10;;;;;;6240063;22;20714;-74
2023/03/24 10:38:17;;;;;;;11.38;9.65;;;16.20;90.80;;;;;;6241224;23;20376;-75
2023/03/24 10:40:46;;;;;;;11.38;9.70;;;16.00;90.70;;;;;;6238775;22;20365;-75
2023/03/24 10:43:16;;;;;;;9.32;8.27;;;15.90;91.30;;;;;;6240648;23;20372;-75
2023/03/24 10:45:46;;;;;;;13.75;9.70;;;15.80;91.50;;;;;;6242000;22;20361;-75
2023/03/24 10:48:32;;;;;;;9.80;8.60;;;15.80;92.60;;;;;;6241515;23;20380;-74
2023/03/24 10:50:59;;;;;;;10.53;8.53;;;15.80;93.60;;;;;;6241386;22;20384;-75
2023/03/24 10:53:26;;;;;;;9.23;8.15;;;15.70;93.60;;;;;;6242434;22;20383;-75
2023/03/24 10:55:53;;;;;;;7.82;7.03;;;15.60;93.30;;;;;;6240629;22;20741;-75
2023/03/24 10:58:40;;;;;;;8.20;7.10;;;15.60;93.90;;;;;;6240923;23;20369;-75
2023/03/24 11:01:29;;;;;;;8.10;7.30;;;15.60;95.00;;;;;;6239928;22;20380;-76
2023/03/24 11:04:03;;;;;;;8.77;7.85;;;15.60;95.20;;;;;;6239516;22;20423;-75
2023/03/24 11:06:31;;;;;;;22.52;12.90;;;15.60;94.70;;;;;;6240583;23;20446;-77
2023/03/24 11:09:20;;;;;;;9.50;7.57;;;15.70;94.20;;;;;;6239681;22;20373;-75
2023/03/24 11:11:47;;;;;;;26.63;13.60;;;15.60;93.70;;;;;;6240070;22;20384;-75
2023/03/24 11:14:25;;;;;;;13.40;8.02;;;15.70;93.10;;;;;;6241021;23;20400;-75
2023/03/24 11:17:22;;;;;;;9.00;7.28;;;15.60;93.20;;;;;;6241527;22;20376;-75
2023/03/24 11:19:54;;;;;;;8.27;6.50;;;15.60;92.60;;;;;;6214784;22;20369;-75
2023/03/24 11:22:21;;;;;;;8.85;7.00;;;15.50;92.90;;;;;;6241062;23;20425;-75
2023/03/24 11:24:55;;;;;;;13.80;9.80;;;15.50;93.70;;;;;;6239504;22;20373;-76
2023/03/24 11:27:22;;;;;;;18.33;12.57;;;15.50;93.90;;;;;;6241028;23;20372;-76
2023/03/24 11:29:53;;;;;;;13.15;10.13;;;15.50;94.50;;;;;;6240151;22;20365;-76
2023/03/24 11:32:26;;;;;;;11.40;10.20;;;15.50;94.00;;;;;;6240851;23;20462;-76
2023/03/24 11:35:04;;;;;;;10.25;8.43;;;15.50;93.60;;;;;;6239500;22;20385;-77
2023/03/24 11:37:34;;;;;;;7.90;7.18;;;15.40;93.90;;;;;;6240229;23;20449;-77
2023/03/24 11:40:17;;;;;;;8.15;6.80;;;15.40;94.40;;;;;;6239950;22;20369;-76
2023/03/24 11:42:57;;;;;;;6.57;5.90;;;15.40;94.50;;;;;;6240999;23;20383;-77
2023/03/24 11:45:37;;;;;;;8.37;7.40;;;15.50;94.50;;;;;;6239762;22;20361;-76
2023/03/24 11:48:30;;;;;;;9.50;7.55;;;15.40;95.00;;;;;;6241419;22;20373;-77
2023/03/24 11:50:59;;;;;;;6.03;5.45;;;15.50;94.70;;;;;;6240098;23;20399;-77
2023/03/24 11:53:45;;;;;;;7.85;6.93;;;15.50;94.50;;;;;;6239790;22;20692;-77
2023/03/24 11:56:39;;;;;;;7.40;6.00;;;15.50;94.50;;;;;;6241502;22;20373;-77
2023/03/24 11:59:18;;;;;;;7.57;6.40;;;15.50;94.60;;;;;;6241880;22;20455;-78
2023/03/24 12:02:27;;;;;;;7.23;6.53;;;15.40;95.10;;;;;;6240578;23;20781;-78
2023/03/24 12:05:20;;;;;;;7.75;6.97;;;15.40;95.00;;;;;;6239943;22;20683;-78
2023/03/24 12:07:53;;;;;;;8.82;7.05;;;15.40;95.20;;;;;;6239182;22;20846;-78
2023/03/24 12:10:47;;;;;;;9.10;7.28;;;15.40;95.10;;;;;;6240965;23;20361;-77
2023/03/24 12:13:19;;;;;;;23.25;14.02;;;15.40;95.00;;;;;;6239030;22;20365;-78
2023/03/24 12:16:15;;;;;;;18.15;11.93;;;15.40;94.20;;;;;;6241631;22;20379;-78
2023/03/24 12:18:54;;;;;;;20.45;12.27;;;15.40;94.60;;;;;;6240424;23;20928;-78
2023/03/24 12:21:59;;;;;;;12.68;8.60;;;15.30;94.50;;;;;;6239389;23;20900;-78
2023/03/24 12:24:49;;;;;;;14.25;9.05;;;15.30;94.80;;;;;;6240310;22;20361;-78
2023/03/24 12:27:48;;;;;;;21.48;11.68;;;15.30;95.00;;;;;;6240058;22;20908;-77
2023/03/24 12:30:49;;;;;;;29.48;14.90;;;15.30;94.80;;;;;;6240151;22;20703;-78
2023/03/24 12:33:36;;;;;;;20.20;12.02;;;15.30;94.80;;;;;;6239824;22;20376;-77
2023/03/24 12:36:30;;;;;;;14.55;10.82;;;15.20;94.90;;;;;;6239740;22;20431;-78
2023/03/24 12:39:18;;;;;;;24.52;13.05;;;15.20;95.30;;;;;;6240768;23;20369;-78
2023/03/24 12:42:14;;;;;;;24.85;12.07;;;15.20;95.20;;;;;;6238939;22;20381;-80
2023/03/24 12:44:56;;;;;;;44.47;17.95;;;15.20;95.60;;;;;;6240008;22;20369;-77
2023/03/24 12:47:36;;;;;;;15.93;9.20;;;15.30;95.40;;;;;;6238890;22;20385;-78
2023/03/24 12:50:14;;;;;;;8.88;7.10;;;15.30;94.90;;;;;;6240317;23;20423;-78
2023/03/24 12:52:50;;;;;;;10.98;8.55;;;15.40;94.10;;;;;;6239426;22;20389;-78
2023/03/24 12:55:53;;;;;;;9.55;7.47;;;15.40;94.30;;;;;;6241028;22;20427;-77
2023/03/24 12:58:43;;;;;;;11.70;10.00;;;15.40;93.70;;;;;;6240550;23;20374;-77
2023/03/24 13:01:21;;;;;;;24.27;19.38;;;15.40;94.60;;;;;;6239846;22;20368;-77
2023/03/24 13:04:04;;;;;;;25.30;13.45;;;15.30;94.30;;;;;;6240999;22;20376;-77
2023/03/24 13:06:43;;;;;;;14.47;8.77;;;15.40;94.90;;;;;;6240189;23;20365;-77
2023/03/24 13:09:24;;;;;;;23.98;13.48;;;15.40;95.10;;;;;;6239284;22;20372;-77
2023/03/24 13:12:02;;;;;;;26.10;15.05;;;15.30;95.00;;;;;;6239292;22;20427;-78
2023/03/24 13:15:01;;;;;;;19.93;12.33;;;15.40;95.40;;;;;;6240273;23;20369;-77
2023/03/24 13:18:06;;;;;;;9.05;7.68;;;15.30;94.90;;;;;;6241038;22;20373;-78
2023/03/24 13:20:43;;;;;;;6.30;5.68;;;15.30;94.50;;;;;;6236590;22;20385;-77
2023/03/24 13:23:15;;;;;;;5.47;4.80;;;15.30;94.30;;;;;;6240341;23;20377;-77
2023/03/24 13:25:57;;;;;;;9.18;6.85;;;15.30;94.10;;;;;;6239452;23;20369;-77
2023/03/24 13:28:47;;;;;;;13.00;7.68;;;15.30;95.10;;;;;;6239613;22;20753;-78
2023/03/24 13:31:16;;;;;;;8.75;6.93;;;15.40;95.20;;;;;;6241232;23;20369;-78
2023/03/24 13:33:44;;;;;;;9.85;6.95;;;15.40;94.90;;;;;;6241289;22;20377;-78
2023/03/24 13:36:17;;;;;;;6.10;5.50;;;15.50;94.50;;;;;;6242262;23;20428;-78
2023/03/24 13:38:50;;;;;;;7.50;6.55;;;15.50;94.30;;;;;;6242650;22;20361;-78
2023/03/24 13:41:22;;;;;;;8.32;7.22;;;15.50;94.00;;;;;;6242317;23;20399;-78
2023/03/24 13:43:58;;;;;;;6.30;5.65;;;15.50;93.70;;;;;;6242373;22;20381;-77
2023/03/24 13:46:25;;;;;;;7.78;6.32;;;15.60;93.90;;;;;;6241523;22;20395;-78
2023/03/24 13:48:57;;;;;;;7.37;6.67;;;15.60;93.60;;;;;;6241976;23;20388;-77
2023/03/24 13:51:34;;;;;;;7.78;6.97;;;15.70;92.90;;;;;;6242447;23;20377;-78
2023/03/24 13:54:19;;;;;;;9.27;7.25;;;15.70;92.30;;;;;;6241299;22;20408;-78
2023/03/24 13:57:00;;;;;;;8.07;7.28;;;15.80;92.00;;;;;;6240708;22;20502;-78
2023/03/24 13:59:30;;;;;;;7.53;6.82;;;15.80;91.90;;;;;;6242144;23;20846;-78
2023/03/24 14:02:15;;;;;;;9.20;7.10;;;15.90;92.70;;;;;;6240463;22;20359;-78
2023/03/24 14:04:46;;;;;;;8.20;7.22;;;16.00;93.40;;;;;;6242146;22;20369;-77
2023/03/24 14:07:40;;;;;;;7.78;6.97;;;16.00;93.00;;;;;;6241860;23;20385;-78
2023/03/24 14:10:12;;;;;;;8.23;7.43;;;16.10;92.10;;;;;;6241348;22;20738;-77
2023/03/24 14:12:58;;;;;;;8.23;6.82;;;16.00;92.10;;;;;;6241544;23;20459;-78
2023/03/24 14:15:30;;;;;;;7.80;7.10;;;15.90;92.20;;;;;;6241466;23;20660;-77
2023/03/24 14:18:35;;;;;;;7.45;6.07;;;15.90;92.20;;;;;;6241447;23;20393;-77
2023/03/24 14:21:05;;;;;;;5.78;5.18;;;15.90;92.30;;;;;;6240830;22;20695;-77
2023/03/24 14:23:48;;;;;;;8.30;7.05;;;15.90;92.50;;;;;;6241637;23;20380;-77
2023/03/24 14:26:33;;;;;;;7.60;6.78;;;15.90;92.70;;;;;;6240518;22;20357;-77
2023/03/24 14:29:00;;;;;;;8.75;7.28;;;15.90;92.30;;;;;;6240134;22;20448;-78
2023/03/24 14:31:33;;;;;;;7.40;6.65;;;15.90;92.50;;;;;;6241620;23;20747;-77
2023/03/24 14:34:24;;;;;;;8.85;7.32;;;15.80;92.90;;;;;;6241685;22;20409;-77
2023/03/24 14:36:59;;;;;;;8.48;7.68;;;15.80;92.80;;;;;;6241283;23;20723;-78
2023/03/24 14:39:44;;;;;;;7.47;6.78;;;15.80;92.70;;;;;;6241176;23;20380;-78
2023/03/24 14:42:27;;;;;;;8.57;7.67;;;15.80;92.80;;;;;;6241592;22;20850;-77
2023/03/24 14:44:56;;;;;;;8.55;7.65;;;15.80;92.90;;;;;;6241101;23;20371;-79
2023/03/24 14:47:30;;;;;;;9.88;7.75;;;15.90;92.60;;;;;;6240993;22;20353;-79
2023/03/24 14:50:02;;;;;;;10.43;8.35;;;15.90;92.50;;;;;;6241673;23;20809;-79
2023/03/24 14:52:42;;;;;;;8.52;7.25;;;15.90;92.50;;;;;;6241137;22;20364;-79
2023/03/24 14:55:19;;;;;;;8.82;7.93;;;15.90;92.20;;;;;;6239701;22;20723;-79
2023/03/24 14:58:01;;;;;;;9.35;7.95;;;15.80;92.20;;;;;;6240567;23;20873;-80
2023/03/24 15:00:34;;;;;;;10.52;7.78;;;15.70;92.60;;;;;;6240383;22;20427;-77
2023/03/24 15:03:16;;;;;;;12.27;8.30;;;15.70;92.70;;;;;;6240260;23;20381;-77
2023/03/24 15:05:43;;;;;;;7.83;7.00;;;15.70;92.70;;;;;;6240300;22;20369;-78
2023/03/24 15:08:20;;;;;;;8.02;7.22;;;15.60;92.80;;;;;;6241004;23;20373;-77
2023/03/24 15:10:55;;;;;;;8.50;7.60;;;15.60;92.90;;;;;;6240065;22;20373;-78
2023/03/24 15:13:46;;;;;;;10.35;9.30;;;15.60;93.30;;;;;;6240797;23;20427;-78
2023/03/24 15:16:13;;;;;;;12.13;10.73;;;15.50;94.30;;;;;;6240059;23;20388;-78
2023/03/24 15:18:59;;;;;;;10.30;9.30;;;15.40;94.80;;;;;;6239468;23;20380;-78
2023/03/24 15:21:39;;;;;;;8.10;7.30;;;15.40;94.90;;;;;;6240723;22;20450;-80
2023/03/24 15:24:21;;;;;;;8.93;8.00;;;15.40;95.00;;;;;;6240391;22;20388;-78